createdAt,value
2022-08-26T00:01:59.271Z,22.14
2022-08-26T00:05:04.071Z,22.12
2022-08-26T00:08:08.453Z,22.08
2022-08-26T00:11:15.967Z,22.05
2022-08-26T00:14:30.880Z,22.02
2022-08-26T00:17:34.572Z,21.99
2022-08-26T00:20:37.578Z,21.97
2022-08-26T00:23:41.619Z,21.92
2022-08-26T00:26:44.773Z,21.90
2022-08-26T00:29:47.668Z,21.87
2022-08-26T00:32:51.245Z,21.84
2022-08-26T00:35:55.377Z,21.82
2022-08-26T00:38:58.837Z,21.81
2022-08-26T00:42:01.967Z,21.79
2022-08-26T00:45:11.630Z,21.78
2022-08-26T00:48:17.949Z,21.78
2022-08-26T00:51:29.806Z,21.77
2022-08-26T00:54:42.261Z,21.76
2022-08-26T00:57:47.776Z,21.74
2022-08-26T01:00:52.470Z,21.75
2022-08-26T01:03:56.141Z,21.72
2022-08-26T01:07:00.011Z,21.70
2022-08-26T01:10:08.385Z,21.68
2022-08-26T01:13:13.193Z,21.65
2022-08-26T01:16:17.106Z,21.64
2022-08-26T01:19:32.401Z,21.61
2022-08-26T01:22:55.431Z,21.58
2022-08-26T01:26:03.129Z,21.55
2022-08-26T01:29:23.842Z,21.53
2022-08-26T01:32:28.403Z,21.51
2022-08-26T01:35:31.340Z,21.49
2022-08-26T01:38:34.974Z,21.47
2022-08-26T01:41:40.643Z,21.44
2022-08-26T01:44:52.269Z,21.42
2022-08-26T01:47:58.580Z,21.40
2022-08-26T01:51:05.737Z,21.38
2022-08-26T01:54:12.091Z,21.36
2022-08-26T01:57:21.980Z,21.34
2022-08-26T02:00:26.761Z,21.32
2022-08-26T02:03:30.984Z,21.30
2022-08-26T02:06:38.733Z,21.29
2022-08-26T02:09:43.512Z,21.26
2022-08-26T02:12:46.540Z,21.25
2022-08-26T02:15:49.870Z,21.22
2022-08-26T02:18:53.889Z,21.21
2022-08-26T02:22:07.072Z,21.21
2022-08-26T02:25:28.175Z,21.19
2022-08-26T02:28:47.112Z,21.18
2022-08-26T02:31:51.938Z,21.16
2022-08-26T02:34:54.904Z,21.15
2022-08-26T02:37:58.314Z,21.13
2022-08-26T02:41:02.129Z,21.11
2022-08-26T02:44:07.208Z,21.09
2022-08-26T02:47:13.247Z,21.08
2022-08-26T02:50:16.211Z,21.07
2022-08-26T02:53:25.087Z,21.05
2022-08-26T02:56:29.406Z,21.03
2022-08-26T02:59:33.459Z,21.03
2022-08-26T03:02:36.599Z,21.01
2022-08-26T03:05:40.179Z,21.00
2022-08-26T03:08:43.241Z,20.99
2022-08-26T03:11:47.283Z,20.98
2022-08-26T03:14:50.238Z,20.97
2022-08-26T03:17:54.646Z,20.96
2022-08-26T03:21:17.599Z,20.95
2022-08-26T03:24:21.279Z,20.94
2022-08-26T03:27:24.313Z,20.94
2022-08-26T03:30:39.961Z,20.91
2022-08-26T03:33:48.541Z,20.90
2022-08-26T03:36:57.679Z,20.88
2022-08-26T03:40:01.721Z,20.86
2022-08-26T03:43:06.764Z,20.84
2022-08-26T03:46:20.649Z,20.83
2022-08-26T03:49:24.230Z,20.82
2022-08-26T03:52:27.138Z,20.81
2022-08-26T03:55:32.513Z,20.79
2022-08-26T03:58:37.362Z,20.75
2022-08-26T04:01:40.911Z,20.73
2022-08-26T04:04:43.864Z,20.70
2022-08-26T04:07:48.521Z,20.68
2022-08-26T04:10:51.604Z,20.65
2022-08-26T04:13:54.580Z,20.63
2022-08-26T04:16:57.492Z,20.62
2022-08-26T04:20:00.688Z,20.61
2022-08-26T04:23:04.461Z,20.62
2022-08-26T04:26:08.760Z,20.63
2022-08-26T04:29:18.961Z,20.64
2022-08-26T04:32:22.224Z,20.64
2022-08-26T04:35:26.249Z,20.65
2022-08-26T04:38:30.390Z,20.67
2022-08-26T04:41:33.686Z,20.68
2022-08-26T04:44:37.709Z,20.68
2022-08-26T04:47:40.623Z,20.70
2022-08-26T04:50:43.715Z,20.72
2022-08-26T04:53:47.025Z,20.74
2022-08-26T04:56:50.811Z,20.75
2022-08-26T04:59:54.207Z,20.78
2022-08-26T05:02:57.502Z,20.80
2022-08-26T05:06:05.523Z,20.83
2022-08-26T05:09:08.577Z,20.87
2022-08-26T05:12:11.604Z,20.91
2022-08-26T05:15:14.566Z,20.96
2022-08-26T05:18:21.349Z,21.03
2022-08-26T05:21:29.164Z,21.10
2022-08-26T05:24:32.108Z,21.18
2022-08-26T05:27:35.064Z,21.26
2022-08-26T05:30:38.870Z,21.34
2022-08-26T05:33:43.471Z,21.43
2022-08-26T05:36:46.684Z,21.51
2022-08-26T05:39:51.155Z,21.60
2022-08-26T05:42:55.124Z,21.68
2022-08-26T05:46:06.625Z,21.76
2022-08-26T05:49:12.651Z,21.85
2022-08-26T05:52:15.957Z,21.92
2022-08-26T05:55:20.321Z,22.00
2022-08-26T05:58:24.193Z,22.06
2022-08-26T06:01:30.101Z,22.14
2022-08-26T06:04:33.084Z,22.22
2022-08-26T06:07:54.841Z,22.30
2022-08-26T06:11:02.474Z,22.39
2022-08-26T06:14:07.905Z,22.48
2022-08-26T06:17:11.239Z,22.57
2022-08-26T06:20:16.159Z,22.66
2022-08-26T06:23:39.273Z,22.76
2022-08-26T06:26:50.377Z,22.85
2022-08-26T06:29:54.836Z,22.94
2022-08-26T06:32:57.797Z,23.03
2022-08-26T06:36:01.560Z,23.11
2022-08-26T06:39:10.358Z,23.20
2022-08-26T06:42:13.523Z,23.29
2022-08-26T06:45:17.859Z,23.37
2022-08-26T06:48:21.623Z,23.44
2022-08-26T06:51:28.329Z,23.51
2022-08-26T06:54:31.895Z,23.60
2022-08-26T06:57:37.677Z,23.67
2022-08-26T07:00:47.173Z,23.77
2022-08-26T07:03:52.544Z,23.85
2022-08-26T07:06:57.674Z,23.95
2022-08-26T07:10:00.647Z,24.05
2022-08-26T07:13:05.834Z,24.15
2022-08-26T07:16:13.613Z,24.25
2022-08-26T07:19:30.209Z,24.37
2022-08-26T07:22:37.218Z,24.50
2022-08-26T07:25:42.027Z,24.62
2022-08-26T07:28:46.579Z,24.72
2022-08-26T07:31:49.762Z,24.85
2022-08-26T07:34:52.897Z,24.97
2022-08-26T07:37:57.174Z,25.08
2022-08-26T07:41:01.902Z,25.18
2022-08-26T07:44:05.338Z,25.30
2022-08-26T07:47:24.727Z,25.42
2022-08-26T07:50:49.497Z,25.55
2022-08-26T07:53:54.359Z,25.68
2022-08-26T07:56:58.251Z,25.81
2022-08-26T08:00:02.289Z,25.94
2022-08-26T08:03:15.262Z,26.06
2022-08-26T08:06:19.833Z,26.18
2022-08-26T08:09:24.677Z,26.30
2022-08-26T08:12:27.768Z,26.44
2022-08-26T08:15:33.157Z,26.56
2022-08-26T08:18:38.565Z,26.69
2022-08-26T08:21:44.019Z,26.80
2022-08-26T08:24:49.975Z,26.91
2022-08-26T08:27:55.928Z,27.03
2022-08-26T08:31:00.778Z,27.15
2022-08-26T08:34:04.322Z,27.24
2022-08-26T08:37:10.654Z,27.33
2022-08-26T08:40:19.004Z,27.42
2022-08-26T08:43:37.698Z,27.50
2022-08-26T08:46:42.691Z,27.60
2022-08-26T08:49:46.655Z,27.69
2022-08-26T08:53:02.462Z,27.77
2022-08-26T08:56:08.483Z,27.86
2022-08-26T08:59:20.416Z,27.97
2022-08-26T09:02:32.198Z,28.07
2022-08-26T09:05:45.440Z,28.16
2022-08-26T09:08:52.554Z,28.27
2022-08-26T09:11:56.565Z,28.36
2022-08-26T09:15:30.200Z,28.47
2022-08-26T09:19:08.243Z,28.60
2022-08-26T09:22:28.313Z,28.73
2022-08-26T09:25:31.338Z,28.85
2022-08-26T09:28:34.271Z,28.97
2022-08-26T09:31:42.297Z,29.08
2022-08-26T09:34:57.342Z,29.18
2022-08-26T09:38:00.530Z,29.28
2022-08-26T09:41:08.373Z,29.37
2022-08-26T09:44:14.740Z,29.47
2022-08-26T09:47:32.490Z,29.56
2022-08-26T09:50:58.074Z,29.66
2022-08-26T09:54:03.033Z,29.74
2022-08-26T09:57:24.258Z,29.83
2022-08-26T10:00:35.052Z,29.91
2022-08-26T10:03:43.064Z,30.00
2022-08-26T10:07:01.822Z,30.09
2022-08-26T10:10:09.344Z,30.18
2022-08-26T10:13:17.737Z,30.26
2022-08-26T10:16:46.293Z,30.32
2022-08-26T10:19:56.470Z,30.39
2022-08-26T10:23:16.391Z,30.45
2022-08-26T10:26:46.118Z,30.50
2022-08-26T10:30:03.989Z,30.56
2022-08-26T10:33:10.664Z,30.61
2022-08-26T10:36:52.365Z,30.68
2022-08-26T10:40:13.280Z,30.77
2022-08-26T10:43:25.651Z,30.85
2022-08-26T10:46:39.791Z,30.92
2022-08-26T10:49:47.212Z,30.97
2022-08-26T10:53:00.569Z,31.01
2022-08-26T10:56:26.059Z,31.07
2022-08-26T11:00:24.494Z,31.12
2022-08-26T11:03:57.854Z,31.21
2022-08-26T11:07:28.643Z,31.29
2022-08-26T11:10:54.941Z,31.35
2022-08-26T11:14:18.018Z,31.44
2022-08-26T11:17:46.981Z,31.55
2022-08-26T11:20:49.954Z,31.62
2022-08-26T11:23:53.968Z,31.68
2022-08-26T11:26:57.480Z,31.74
2022-08-26T11:30:06.757Z,31.79
2022-08-26T11:33:31.424Z,31.82
2022-08-26T11:36:35.181Z,31.87
2022-08-26T11:39:55.323Z,31.91
2022-08-26T11:43:07.064Z,31.94
2022-08-26T11:46:13.019Z,31.97
2022-08-26T11:49:17.419Z,32.01
2022-08-26T11:52:22.281Z,32.06
2022-08-26T11:55:25.429Z,32.12
2022-08-26T11:58:30.130Z,32.17
2022-08-26T12:01:36.314Z,32.21
2022-08-26T12:04:43.396Z,32.24
2022-08-26T12:07:50.902Z,32.27
2022-08-26T12:11:12.139Z,32.30
2022-08-26T12:14:24.631Z,32.34
2022-08-26T12:17:28.359Z,32.36
2022-08-26T12:20:48.318Z,32.41
2022-08-26T12:23:54.773Z,32.44
2022-08-26T12:27:23.749Z,32.47
2022-08-26T12:30:26.777Z,32.53
2022-08-26T12:33:31.071Z,32.54
2022-08-26T12:36:39.351Z,32.51
2022-08-26T12:39:44.852Z,32.48
2022-08-26T12:42:47.859Z,32.46
2022-08-26T12:45:58.206Z,32.45
2022-08-26T12:49:01.920Z,32.41
2022-08-26T12:52:29.979Z,32.36
2022-08-26T12:55:33.047Z,32.28
2022-08-26T12:58:39.934Z,32.19
2022-08-26T13:01:44.643Z,32.11
2022-08-26T13:04:48.821Z,32.05
2022-08-26T13:08:12.386Z,31.96
2022-08-26T13:11:20.804Z,31.85
2022-08-26T13:14:24.797Z,31.74
2022-08-26T13:17:29.808Z,31.63
2022-08-26T13:20:33.023Z,31.50
2022-08-26T13:23:40.619Z,31.38
2022-08-26T13:26:49.606Z,31.26
2022-08-26T13:29:54.033Z,31.16
2022-08-26T13:33:00.622Z,31.06
2022-08-26T13:36:05.882Z,30.99
2022-08-26T13:39:08.909Z,30.94
2022-08-26T13:42:11.951Z,30.90
2022-08-26T13:45:15.208Z,30.86
2022-08-26T13:48:22.857Z,30.83
2022-08-26T13:51:27.812Z,30.80
2022-08-26T13:54:38.496Z,30.78
2022-08-26T13:57:44.760Z,30.75
2022-08-26T14:00:48.243Z,30.73
2022-08-26T14:03:51.882Z,30.72
2022-08-26T14:06:55.854Z,30.72
2022-08-26T14:10:02.993Z,30.71
2022-08-26T14:13:06.391Z,30.70
2022-08-26T14:16:22.916Z,30.68
2022-08-26T14:19:25.995Z,30.66
2022-08-26T14:22:29.092Z,30.63
2022-08-26T14:25:33.704Z,30.59
2022-08-26T14:28:37.945Z,30.55
2022-08-26T14:31:41.081Z,30.50
2022-08-26T14:34:44.086Z,30.45
2022-08-26T14:37:47.399Z,30.38
2022-08-26T14:40:50.454Z,30.32
2022-08-26T14:44:00.153Z,30.22
2022-08-26T14:47:09.849Z,30.12
2022-08-26T14:50:15.169Z,30.01
2022-08-26T14:53:36.829Z,29.89
2022-08-26T14:56:42.760Z,29.76
2022-08-26T14:59:50.104Z,29.64
2022-08-26T15:02:53.390Z,29.52
2022-08-26T15:05:58.413Z,29.42
2022-08-26T15:09:04.590Z,29.33
2022-08-26T15:12:07.699Z,29.23
2022-08-26T15:15:17.362Z,29.15
2022-08-26T15:18:20.747Z,29.08
2022-08-26T15:21:25.212Z,29.01
2022-08-26T15:24:29.116Z,28.94
2022-08-26T15:27:32.614Z,28.88
2022-08-26T15:30:35.778Z,28.82
2022-08-26T15:33:39.448Z,28.76
2022-08-26T15:36:44.815Z,28.69
2022-08-26T15:39:47.994Z,28.62
2022-08-26T15:42:57.557Z,28.56
2022-08-26T15:46:05.122Z,28.49
2022-08-26T15:49:08.668Z,28.44
2022-08-26T15:52:21.253Z,28.36
2022-08-26T15:55:26.665Z,28.31
2022-08-26T15:58:32.330Z,28.26
2022-08-26T16:01:36.396Z,28.21
2022-08-26T16:04:39.373Z,28.16
2022-08-26T16:07:42.323Z,28.11
2022-08-26T16:10:50.289Z,28.06
2022-08-26T16:13:54.000Z,28.01
2022-08-26T16:16:59.967Z,27.97
2022-08-26T16:20:03.973Z,27.93
2022-08-26T16:23:07.493Z,27.88
2022-08-26T16:26:15.155Z,27.83
2022-08-26T16:29:18.617Z,27.79
2022-08-26T16:32:21.526Z,27.74
2022-08-26T16:35:27.646Z,27.70
2022-08-26T16:38:30.781Z,27.66
2022-08-26T16:41:35.118Z,27.60
2022-08-26T16:44:45.115Z,27.55
2022-08-26T16:47:49.158Z,27.49
2022-08-26T16:50:54.468Z,27.44
2022-08-26T16:53:59.075Z,27.38
2022-08-26T16:57:02.710Z,27.31
2022-08-26T17:00:10.505Z,27.24
2022-08-26T17:03:13.624Z,27.18
2022-08-26T17:06:17.214Z,27.11
2022-08-26T17:09:20.846Z,27.02
2022-08-26T17:12:23.838Z,26.94
2022-08-26T17:15:26.983Z,26.86
2022-08-26T17:18:30.413Z,26.78
2022-08-26T17:21:35.474Z,26.69
2022-08-26T17:24:39.368Z,26.60
2022-08-26T17:27:42.827Z,26.51
2022-08-26T17:30:46.029Z,26.43
2022-08-26T17:33:53.673Z,26.37
2022-08-26T17:36:57.188Z,26.30
2022-08-26T17:40:00.397Z,26.24
2022-08-26T17:43:03.536Z,26.19
2022-08-26T17:46:08.859Z,26.13
2022-08-26T17:49:12.269Z,26.07
2022-08-26T17:52:15.324Z,26.03
2022-08-26T17:55:19.268Z,25.97
2022-08-26T17:58:23.747Z,25.92
2022-08-26T18:01:28.190Z,25.87
2022-08-26T18:04:31.498Z,25.82
2022-08-26T18:07:37.736Z,25.77
2022-08-26T18:10:47.911Z,25.71
2022-08-26T18:13:51.424Z,25.67
2022-08-26T18:16:54.308Z,25.62
2022-08-26T18:19:57.921Z,25.57
2022-08-26T18:23:00.955Z,25.52
2022-08-26T18:26:04.071Z,25.48
2022-08-26T18:29:08.120Z,25.43
2022-08-26T18:32:11.138Z,25.38
2022-08-26T18:35:14.507Z,25.33
2022-08-26T18:38:17.747Z,25.28
2022-08-26T18:41:24.340Z,25.23
2022-08-26T18:44:27.308Z,25.19
2022-08-26T18:47:32.032Z,25.13
2022-08-26T18:50:39.823Z,25.08
2022-08-26T18:53:43.055Z,25.02
2022-08-26T18:56:46.313Z,24.96
2022-08-26T18:59:49.402Z,24.90
2022-08-26T19:02:52.445Z,24.86
2022-08-26T19:05:59.204Z,24.82
2022-08-26T19:09:06.666Z,24.79
2022-08-26T19:12:11.960Z,24.76
2022-08-26T19:15:15.314Z,24.72
2022-08-26T19:18:19.556Z,24.69
2022-08-26T19:21:23.088Z,24.65
2022-08-26T19:24:28.305Z,24.61
2022-08-26T19:27:32.373Z,24.57
2022-08-26T19:30:43.860Z,24.52
2022-08-26T19:33:46.981Z,24.49
2022-08-26T19:36:53.171Z,24.45
2022-08-26T19:39:56.248Z,24.41
2022-08-26T19:42:59.375Z,24.38
2022-08-26T19:46:09.568Z,24.35
2022-08-26T19:49:12.568Z,24.31
2022-08-26T19:52:15.647Z,24.27
2022-08-26T19:55:20.819Z,24.23
2022-08-26T19:58:24.283Z,24.20
2022-08-26T20:01:27.438Z,24.17
2022-08-26T20:04:32.096Z,24.15
2022-08-26T20:07:35.216Z,24.12
2022-08-26T20:10:38.237Z,24.09
2022-08-26T20:13:46.791Z,24.07
2022-08-26T20:16:50.105Z,24.03
2022-08-26T20:20:14.755Z,24.00
2022-08-26T20:23:36.617Z,23.97
2022-08-26T20:26:41.635Z,23.94
2022-08-26T20:29:46.329Z,23.92
2022-08-26T20:32:51.330Z,23.90
2022-08-26T20:35:54.963Z,23.87
2022-08-26T20:38:58.801Z,23.85
2022-08-26T20:42:06.801Z,23.82
2022-08-26T20:45:24.237Z,23.80
2022-08-26T20:48:34.829Z,23.78
2022-08-26T20:51:38.567Z,23.77
2022-08-26T20:54:44.039Z,23.75
2022-08-26T20:57:48.774Z,23.73
2022-08-26T21:00:57.893Z,23.70
2022-08-26T21:04:07.102Z,23.68
2022-08-26T21:07:10.248Z,23.65
2022-08-26T21:10:15.817Z,23.62
2022-08-26T21:13:19.436Z,23.60
2022-08-26T21:16:22.646Z,23.57
2022-08-26T21:19:27.075Z,23.54
2022-08-26T21:22:30.067Z,23.51
2022-08-26T21:25:33.345Z,23.48
2022-08-26T21:28:38.605Z,23.44
2022-08-26T21:31:46.118Z,23.40
2022-08-26T21:34:50.081Z,23.37
2022-08-26T21:37:53.012Z,23.34
2022-08-26T21:41:01.555Z,23.30
2022-08-26T21:44:04.526Z,23.25
2022-08-26T21:47:07.508Z,23.21
2022-08-26T21:50:10.957Z,23.17
2022-08-26T21:53:15.556Z,23.12
2022-08-26T21:56:21.000Z,23.09
2022-08-26T21:59:24.696Z,23.04
2022-08-26T22:02:27.650Z,23.00
2022-08-26T22:05:30.602Z,22.96
2022-08-26T22:08:33.640Z,22.93
2022-08-26T22:11:36.862Z,22.89
2022-08-26T22:14:39.963Z,22.86
2022-08-26T22:17:42.926Z,22.83
2022-08-26T22:20:45.856Z,22.80
2022-08-26T22:23:48.875Z,22.78
2022-08-26T22:26:52.227Z,22.76
2022-08-26T22:29:55.164Z,22.75
2022-08-26T22:32:58.267Z,22.73
2022-08-26T22:36:01.230Z,22.72
2022-08-26T22:39:05.046Z,22.70
2022-08-26T22:42:08.031Z,22.69
2022-08-26T22:45:12.233Z,22.65
2022-08-26T22:48:20.025Z,22.62
2022-08-26T22:51:23.216Z,22.59
2022-08-26T22:54:26.179Z,22.57
2022-08-26T22:57:29.117Z,22.55
2022-08-26T23:00:32.632Z,22.52
2022-08-26T23:03:35.907Z,22.49
2022-08-26T23:06:41.385Z,22.46
2022-08-26T23:09:44.364Z,22.43
2022-08-26T23:12:47.310Z,22.40
2022-08-26T23:16:00.249Z,22.37
2022-08-26T23:19:04.678Z,22.36
2022-08-26T23:22:07.686Z,22.35
2022-08-26T23:25:11.057Z,22.35
2022-08-26T23:28:14.037Z,22.35
2022-08-26T23:31:17.049Z,22.35
2022-08-26T23:34:38.932Z,22.35
2022-08-26T23:37:44.886Z,22.34
2022-08-26T23:40:49.072Z,22.33
2022-08-26T23:43:52.244Z,22.32
2022-08-26T23:46:55.361Z,22.32
2022-08-26T23:49:58.507Z,22.31
2022-08-26T23:53:08.772Z,22.30
2022-08-26T23:56:16.131Z,22.29
2022-08-26T23:59:19.281Z,22.27
